Time;durP1;ratioP1;P1;durP2;ratioP2;P2;SDS_P1;SDS_P2;PMS_P1;PMS_P2;Temp;Humidity;BMP_temperature;BMP_pressure;BME280_temperature;BME280_humidity;BME280_pressure;Samples;Min_cycle;Max_cycle;Signal;HPM_P1;HPM_P2
2022/06/18 00:00:42;;;;;;;15.00;4.07;;;20.70;97.60;;;;;;5039150;28;20037;-67
2022/06/18 00:03:09;;;;;;;11.98;3.58;;;20.70;97.30;;;;;;5038833;28;20053;-68
2022/06/18 00:05:37;;;;;;;9.60;3.83;;;20.70;97.30;;;;;;5044909;28;20500;-67
2022/06/18 00:08:06;;;;;;;7.65;4.00;;;20.60;97.40;;;;;;5048253;28;20414;-68
2022/06/18 00:10:32;;;;;;;9.88;4.07;;;20.60;97.60;;;;;;5031918;28;20048;-67
2022/06/18 00:15:58;;;;;;;15.30;4.73;;;20.60;98.00;;;;;;5032950;28;20365;-67
2022/06/18 00:18:24;;;;;;;13.05;4.05;;;20.50;98.00;;;;;;5035901;28;20383;-68
2022/06/18 00:20:50;;;;;;;11.73;4.30;;;20.50;98.10;;;;;;5030180;28;20513;-68
2022/06/18 00:23:20;;;;;;;10.13;4.18;;;20.50;98.30;;;;;;5030385;28;20156;-67
2022/06/18 00:25:49;;;;;;;7.82;3.70;;;20.40;98.50;;;;;;5030181;28;20060;-68
2022/06/18 00:28:21;;;;;;;10.25;3.80;;;20.40;98.30;;;;;;5030762;28;20396;-67
2022/06/18 00:30:48;;;;;;;6.78;3.90;;;20.40;98.40;;;;;;5043838;28;20041;-67
2022/06/18 00:33:14;;;;;;;8.70;4.13;;;20.40;98.50;;;;;;5050722;28;20041;-67
2022/06/18 00:35:41;;;;;;;7.30;3.70;;;20.30;98.50;;;;;;5048801;28;20053;-67
2022/06/18 00:38:11;;;;;;;11.35;4.43;;;20.30;98.60;;;;;;5046416;28;20049;-67
2022/06/18 00:40:42;;;;;;;14.18;4.53;;;20.30;98.60;;;;;;5042657;28;20479;-67
2022/06/18 00:43:21;;;;;;;6.05;4.00;;;20.30;98.70;;;;;;5041693;28;20044;-67
2022/06/18 00:45:51;;;;;;;9.82;4.45;;;20.30;98.90;;;;;;5029809;28;20049;-67
2022/06/18 00:48:45;;;;;;;10.25;4.40;;;20.20;98.70;;;;;;5045696;28;20092;-68
2022/06/18 00:51:17;;;;;;;9.27;4.38;;;20.30;98.80;;;;;;5048425;28;20044;-67
2022/06/18 00:53:49;;;;;;;8.98;3.88;;;20.30;98.70;;;;;;5032799;28;20123;-68
2022/06/18 00:56:24;;;;;;;8.57;3.90;;;20.20;98.80;;;;;;5029872;28;20049;-67
2022/06/18 00:58:58;;;;;;;13.38;4.82;;;20.20;98.80;;;;;;5031323;28;20044;-68
2022/06/18 01:01:29;;;;;;;9.55;5.00;;;20.20;98.80;;;;;;5049368;28;20071;-68
2022/06/18 01:03:55;;;;;;;8.65;5.15;;;20.20;98.80;;;;;;5036339;28;20063;-67
2022/06/18 01:06:33;;;;;;;9.90;4.78;;;20.20;98.80;;;;;;5045808;28;20050;-68
2022/06/18 01:09:04;;;;;;;10.10;4.00;;;20.30;98.70;;;;;;5049152;28;20068;-67
2022/06/18 01:11:38;;;;;;;9.15;4.90;;;20.20;98.70;;;;;;5047410;28;20041;-66
2022/06/18 01:14:06;;;;;;;8.05;5.07;;;20.30;98.70;;;;;;5041097;28;20045;-68
2022/06/18 01:16:33;;;;;;;9.23;4.63;;;20.20;98.70;;;;;;5033630;28;20491;-68
2022/06/18 01:18:59;;;;;;;7.45;4.65;;;20.20;98.80;;;;;;5038617;28;20041;-68
2022/06/18 01:21:44;;;;;;;12.60;4.88;;;20.20;98.80;;;;;;5037895;28;20045;-68
2022/06/18 01:24:31;;;;;;;13.93;5.15;;;20.10;99.00;;;;;;5047316;28;20454;-68
2022/06/18 01:26:57;;;;;;;7.85;5.03;;;20.10;98.90;;;;;;5047589;28;20048;-68
2022/06/18 01:29:23;;;;;;;8.80;5.10;;;20.10;99.00;;;;;;5045616;28;20392;-67
2022/06/18 01:31:50;;;;;;;7.68;5.43;;;20.10;99.10;;;;;;5049294;28;20048;-68
2022/06/18 01:34:17;;;;;;;16.95;5.60;;;20.10;99.20;;;;;;5032588;28;20041;-67
2022/06/18 01:36:43;;;;;;;10.95;5.53;;;20.10;99.20;;;;;;5042737;28;20475;-68
2022/06/18 01:39:14;;;;;;;10.07;5.60;;;20.10;99.20;;;;;;5030228;28;20525;-68
2022/06/18 01:41:51;;;;;;;12.50;6.13;;;20.10;99.20;;;;;;5030486;28;20049;-68
2022/06/18 01:44:28;;;;;;;11.70;6.10;;;20.10;99.30;;;;;;5026387;28;20052;-68
2022/06/18 01:46:59;;;;;;;6.95;5.55;;;20.10;99.40;;;;;;5042561;28;20045;-68
2022/06/18 01:49:41;;;;;;;9.57;5.30;;;20.00;99.30;;;;;;5045886;28;20425;-68
2022/06/18 01:52:08;;;;;;;7.20;5.40;;;20.00;99.50;;;;;;5050585;28;20116;-68
2022/06/18 01:54:55;;;;;;;10.95;6.15;;;20.00;99.50;;;;;;5033098;28;20079;-68
2022/06/18 01:57:27;;;;;;;10.43;5.38;;;20.00;99.90;;;;;;5037182;28;20079;-68
2022/06/18 01:59:57;;;;;;;9.00;6.10;;;19.90;99.80;;;;;;5059804;28;20507;-68
2022/06/18 02:02:23;;;;;;;9.00;6.68;;;19.90;99.80;;;;;;5043511;28;20084;-68
2022/06/18 02:04:48;;;;;;;9.70;6.47;;;19.90;99.90;;;;;;5046109;28;20400;-68
2022/06/18 02:07:17;;;;;;;11.60;6.93;;;19.80;99.90;;;;;;5042459;28;20466;-68
2022/06/18 02:09:49;;;;;;;17.85;6.85;;;19.80;99.90;;;;;;5040888;28;20424;-68
2022/06/18 02:12:18;;;;;;;10.88;6.22;;;19.80;99.90;;;;;;5039250;28;20047;-68
2022/06/18 02:14:49;;;;;;;16.05;7.10;;;19.70;99.90;;;;;;5030708;28;20057;-68
2022/06/18 02:17:18;;;;;;;12.80;7.30;;;19.60;99.90;;;;;;5036768;28;20037;-68
2022/06/18 02:19:58;;;;;;;12.13;6.68;;;19.60;99.90;;;;;;5045838;28;20095;-68
2022/06/18 02:22:43;;;;;;;11.55;7.05;;;19.60;99.90;;;;;;5040993;28;20037;-68
2022/06/18 02:25:10;;;;;;;10.30;7.40;;;19.60;99.90;;;;;;5031740;28;20136;-69
2022/06/18 02:27:39;;;;;;;12.23;7.67;;;19.60;99.90;;;;;;5037507;28;20060;-68
2022/06/18 02:30:11;;;;;;;13.07;8.13;;;19.60;99.90;;;;;;5036420;28;20131;-68
2022/06/18 02:33:01;;;;;;;14.90;7.80;;;19.60;99.90;;;;;;5037169;28;20044;-68
2022/06/18 02:35:34;;;;;;;14.50;8.30;;;19.60;99.90;;;;;;5038374;28;20520;-68
2022/06/18 02:38:03;;;;;;;15.52;8.77;;;19.60;99.90;;;;;;5045549;28;20076;-68
2022/06/18 02:40:30;;;;;;;16.33;8.18;;;19.60;99.90;;;;;;5046766;28;20380;-68
2022/06/18 02:43:00;;;;;;;20.25;8.57;;;19.60;99.90;;;;;;5058446;28;20452;-68
2022/06/18 02:45:27;;;;;;;20.70;9.13;;;19.50;99.90;;;;;;5059147;28;20139;-68
2022/06/18 02:47:56;;;;;;;14.50;8.35;;;19.50;99.90;;;;;;5041048;28;20037;-68
2022/06/18 02:50:25;;;;;;;14.07;9.45;;;19.50;99.90;;;;;;5051251;28;20392;-68
2022/06/18 02:52:54;;;;;;;25.35;9.35;;;19.40;99.90;;;;;;5049988;28;20045;-68
2022/06/18 02:55:33;;;;;;;18.40;9.10;;;19.40;99.90;;;;;;5065468;28;20070;-68
2022/06/18 02:58:12;;;;;;;20.85;9.30;;;19.30;99.90;;;;;;5042926;28;20063;-68
2022/06/18 03:00:41;;;;;;;16.20;9.68;;;19.30;99.90;;;;;;5040618;28;20514;-67
2022/06/18 03:03:13;;;;;;;16.83;8.93;;;19.20;99.90;;;;;;5044135;28;20411;-68
2022/06/18 03:05:39;;;;;;;15.60;9.82;;;19.20;99.90;;;;;;5047509;28;20649;-68
2022/06/18 03:08:05;;;;;;;20.17;10.05;;;19.20;99.90;;;;;;5033508;28;20124;-68
2022/06/18 03:13:18;;;;;;;17.42;10.38;;;19.20;99.90;;;;;;5055187;28;20048;-68
2022/06/18 03:15:48;;;;;;;16.48;9.90;;;19.10;99.90;;;;;;5031581;28;20077;-68
2022/06/18 03:18:16;;;;;;;18.85;11.45;;;19.10;99.90;;;;;;5031554;28;20042;-68
2022/06/18 03:20:57;;;;;;;22.20;11.60;;;19.00;99.90;;;;;;5053807;28;20048;-68
2022/06/18 03:23:23;;;;;;;19.73;11.32;;;19.10;99.90;;;;;;5041395;28;20049;-69
2022/06/18 03:25:50;;;;;;;19.33;10.27;;;19.00;99.90;;;;;;5034733;28;20070;-68
2022/06/18 03:28:17;;;;;;;24.00;12.00;;;18.90;99.90;;;;;;5043378;28;20586;-68
2022/06/18 03:30:42;;;;;;;22.75;11.75;;;18.90;99.90;;;;;;5039609;28;20057;-68
2022/06/18 03:33:09;;;;;;;21.60;11.82;;;18.80;99.90;;;;;;5031104;28;20079;-68
2022/06/18 03:35:36;;;;;;;23.08;12.27;;;18.80;99.90;;;;;;5043119;28;20053;-68
2022/06/18 03:38:01;;;;;;;25.50;12.95;;;18.80;99.90;;;;;;5047863;28;20503;-67
2022/06/18 03:40:27;;;;;;;17.25;12.23;;;18.70;99.90;;;;;;5044222;28;20087;-68
2022/06/18 03:42:53;;;;;;;30.23;14.10;;;18.70;99.90;;;;;;5038282;28;20132;-67
2022/06/18 03:45:19;;;;;;;21.02;12.52;;;18.70;99.90;;;;;;5045149;28;20129;-67
2022/06/18 03:47:46;;;;;;;20.67;13.40;;;18.60;99.90;;;;;;5048193;28;20201;-68
2022/06/18 03:50:18;;;;;;;24.05;12.55;;;18.60;99.90;;;;;;5045541;28;20522;-68
2022/06/18 03:52:44;;;;;;;26.05;13.50;;;18.50;99.90;;;;;;5033594;28;20051;-67
2022/06/18 03:55:12;;;;;;;24.00;13.38;;;18.40;99.90;;;;;;5044758;28;20045;-67
2022/06/18 03:57:38;;;;;;;27.85;15.45;;;18.40;99.90;;;;;;5031944;28;20153;-68
2022/06/18 04:00:09;;;;;;;27.70;14.40;;;18.30;99.90;;;;;;5046598;28;20454;-67
2022/06/18 04:02:35;;;;;;;24.92;15.35;;;18.20;99.90;;;;;;5043333;28;20103;-67
2022/06/18 04:05:01;;;;;;;34.08;17.13;;;18.10;99.90;;;;;;5034609;28;20052;-68
2022/06/18 04:07:26;;;;;;;23.38;13.77;;;18.10;99.90;;;;;;5040493;28;20118;-68
2022/06/18 04:09:53;;;;;;;31.23;15.10;;;18.10;99.90;;;;;;5036649;28;20321;-68
2022/06/18 04:12:20;;;;;;;26.20;14.30;;;18.10;99.90;;;;;;5048240;28;20052;-68
2022/06/18 04:14:45;;;;;;;27.27;15.40;;;18.10;99.90;;;;;;5042198;28;20332;-67
2022/06/18 04:17:15;;;;;;;27.63;15.50;;;18.10;99.90;;;;;;5030549;28;20116;-68
2022/06/18 04:19:42;;;;;;;29.40;15.52;;;18.10;99.90;;;;;;5029210;28;20065;-68
2022/06/18 04:22:08;;;;;;;30.20;15.43;;;18.00;99.90;;;;;;5044272;28;20136;-68
2022/06/18 04:24:34;;;;;;;25.48;15.40;;;18.00;99.90;;;;;;5041430;28;20053;-68
2022/06/18 04:27:00;;;;;;;25.38;15.57;;;18.00;99.90;;;;;;5047419;28;20037;-68
2022/06/18 04:29:27;;;;;;;32.80;16.70;;;18.00;99.90;;;;;;5052995;28;20414;-68
2022/06/18 04:31:53;;;;;;;25.95;15.77;;;18.00;99.90;;;;;;5040207;28;20079;-68
2022/06/18 04:34:19;;;;;;;27.73;15.95;;;18.00;99.90;;;;;;5039848;28;20403;-68
2022/06/18 04:36:45;;;;;;;33.47;16.13;;;18.00;99.90;;;;;;5044510;28;20041;-68
2022/06/18 04:39:11;;;;;;;28.58;15.18;;;18.00;99.90;;;;;;5058476;28;20060;-68
2022/06/18 04:41:37;;;;;;;28.67;14.90;;;18.00;99.90;;;;;;5048416;28;20059;-68
2022/06/18 04:44:03;;;;;;;28.05;14.27;;;18.00;99.90;;;;;;5038705;28;20406;-68
2022/06/18 04:46:29;;;;;;;32.38;15.15;;;18.00;99.90;;;;;;5038769;28;20053;-68
2022/06/18 04:48:55;;;;;;;28.98;15.25;;;18.00;99.90;;;;;;5043327;28;20059;-68
2022/06/18 04:51:21;;;;;;;23.65;14.30;;;18.10;99.90;;;;;;5042346;28;20057;-68
2022/06/18 04:53:46;;;;;;;29.92;15.75;;;18.10;99.90;;;;;;5045466;28;20080;-67
2022/06/18 04:56:12;;;;;;;27.25;13.98;;;18.20;99.90;;;;;;5045784;28;20084;-67
2022/06/18 04:58:38;;;;;;;25.95;15.82;;;18.20;99.90;;;;;;5043873;28;20045;-67
2022/06/18 05:01:04;;;;;;;29.15;14.80;;;18.20;99.90;;;;;;5035303;28;20045;-68
2022/06/18 05:03:30;;;;;;;29.42;14.57;;;18.20;99.90;;;;;;5044840;28;20140;-68
2022/06/18 05:05:58;;;;;;;22.15;13.75;;;18.30;99.90;;;;;;5046882;28;20139;-68
2022/06/18 05:08:24;;;;;;;29.20;15.80;;;18.30;99.90;;;;;;5046544;28;20042;-68
2022/06/18 05:10:50;;;;;;;28.10;15.27;;;18.30;99.90;;;;;;5034930;28;20046;-68
2022/06/18 05:13:16;;;;;;;27.58;14.38;;;18.30;99.90;;;;;;5028260;28;20147;-67
2022/06/18 05:15:42;;;;;;;30.42;14.40;;;18.40;99.90;;;;;;5045680;28;20045;-68
2022/06/18 05:18:13;;;;;;;27.88;15.68;;;18.40;99.90;;;;;;5037608;28;20454;-68
2022/06/18 05:20:38;;;;;;;30.08;14.05;;;18.50;99.90;;;;;;5049918;28;20042;-68
2022/06/18 05:23:04;;;;;;;25.23;15.68;;;18.50;99.90;;;;;;5031469;28;20510;-68
2022/06/18 05:25:30;;;;;;;26.58;14.38;;;18.60;99.90;;;;;;5042927;28;20398;-68
2022/06/18 05:27:56;;;;;;;27.73;14.10;;;18.60;99.90;;;;;;5045999;28;20041;-66
2022/06/18 05:30:25;;;;;;;29.98;14.73;;;18.60;99.90;;;;;;5032812;28;20057;-67
2022/06/18 05:32:52;;;;;;;28.23;13.63;;;18.70;99.90;;;;;;5033855;28;20507;-66
2022/06/18 05:35:18;;;;;;;27.45;12.80;;;18.80;99.90;;;;;;5038218;28;20055;-65
2022/06/18 05:37:44;;;;;;;24.42;13.32;;;18.80;99.90;;;;;;5033985;28;20052;-67
2022/06/18 05:40:12;;;;;;;23.33;12.63;;;18.80;99.90;;;;;;5028592;28;20042;-67
2022/06/18 05:42:38;;;;;;;19.38;12.50;;;18.80;99.90;;;;;;5045376;28;20505;-65
2022/06/18 05:45:04;;;;;;;23.75;11.52;;;18.90;99.90;;;;;;5034953;28;20052;-66
2022/06/18 05:47:32;;;;;;;21.30;11.05;;;18.90;99.90;;;;;;5028688;28;20107;-67
2022/06/18 05:49:58;;;;;;;22.38;12.07;;;19.00;99.90;;;;;;5037313;28;20359;-66
2022/06/18 05:52:25;;;;;;;31.58;11.52;;;19.00;99.90;;;;;;5039487;28;20996;-67
2022/06/18 05:54:51;;;;;;;22.73;11.50;;;19.00;99.90;;;;;;5018758;28;20132;-66
2022/06/18 05:57:18;;;;;;;24.55;11.55;;;19.10;99.90;;;;;;5035631;28;20183;-67
2022/06/18 05:59:44;;;;;;;18.60;10.52;;;19.20;99.90;;;;;;5039276;28;20054;-67
2022/06/18 06:02:12;;;;;;;24.55;11.43;;;19.10;99.90;;;;;;5032569;28;20053;-67
2022/06/18 06:04:39;;;;;;;25.90;11.25;;;19.20;99.90;;;;;;5037345;28;20633;-66
2022/06/18 06:07:08;;;;;;;24.45;11.75;;;19.30;99.90;;;;;;5031014;28;20578;-67
2022/06/18 06:12:20;;;;;;;20.60;10.60;;;19.40;99.90;;;;;;5040828;28;20392;-69
2022/06/18 06:14:46;;;;;;;19.08;9.85;;;19.50;99.90;;;;;;5042009;28;20053;-69
2022/06/18 06:17:19;;;;;;;24.17;10.00;;;19.70;99.90;;;;;;5050519;28;20551;-69
2022/06/18 06:19:45;;;;;;;21.95;9.52;;;20.00;99.90;;;;;;5049949;28;20447;-68
2022/06/18 06:22:10;;;;;;;17.92;8.88;;;20.10;99.90;;;;;;5050651;28;20037;-69
2022/06/18 06:24:36;;;;;;;23.80;10.00;;;20.10;99.90;;;;;;5042643;28;20501;-69
2022/06/18 06:27:02;;;;;;;18.10;9.15;;;20.20;99.90;;;;;;5043183;28;20128;-69
2022/06/18 06:29:28;;;;;;;22.40;8.82;;;20.20;99.90;;;;;;5035817;28;20049;-68
2022/06/18 06:31:54;;;;;;;18.17;9.35;;;20.30;99.90;;;;;;5048944;28;20110;-69
2022/06/18 06:34:20;;;;;;;21.33;9.25;;;20.20;99.90;;;;;;5030269;28;20502;-69
2022/06/18 06:36:45;;;;;;;19.80;7.82;;;20.30;99.90;;;;;;5035739;28;20045;-68
2022/06/18 06:39:11;;;;;;;16.85;8.20;;;20.30;99.90;;;;;;5049055;28;20063;-67
2022/06/18 06:41:37;;;;;;;15.30;7.93;;;20.40;99.90;;;;;;5068721;28;20067;-68
2022/06/18 06:44:03;;;;;;;15.15;8.77;;;20.50;99.90;;;;;;5058003;28;20041;-68
2022/06/18 06:46:28;;;;;;;19.83;8.70;;;20.50;99.90;;;;;;5046711;28;20056;-68
2022/06/18 06:48:54;;;;;;;15.27;8.32;;;20.60;99.90;;;;;;5042300;28;20461;-69
2022/06/18 06:51:30;;;;;;;12.90;7.30;;;20.70;99.90;;;;;;5052272;28;20048;-68
2022/06/18 06:53:56;;;;;;;20.00;8.05;;;20.80;99.90;;;;;;5049787;28;20075;-67
2022/06/18 06:59:09;;;;;;;19.92;8.30;;;20.90;99.90;;;;;;5048020;28;20053;-67
2022/06/18 07:01:35;;;;;;;19.27;8.02;;;21.00;99.90;;;;;;5035777;28;20045;-66
2022/06/18 07:04:03;;;;;;;19.23;7.03;;;21.00;99.90;;;;;;5049828;28;20095;-67
2022/06/18 07:06:29;;;;;;;19.40;6.47;;;21.10;99.90;;;;;;5054479;28;20099;-68
2022/06/18 07:08:55;;;;;;;14.50;6.82;;;21.00;99.90;;;;;;5044082;28;20508;-67
2022/06/18 07:11:21;;;;;;;16.40;6.47;;;21.00;99.90;;;;;;5035515;28;20053;-67
2022/06/18 07:13:47;;;;;;;12.45;6.15;;;21.10;99.90;;;;;;5043165;28;20129;-68
2022/06/18 07:16:15;;;;;;;16.00;6.25;;;21.20;99.90;;;;;;5042434;28;20566;-67
2022/06/18 07:18:41;;;;;;;21.67;6.53;;;21.20;99.90;;;;;;5042369;28;20407;-68
2022/06/18 07:21:11;;;;;;;14.00;6.28;;;21.10;99.90;;;;;;5045356;28;20053;-66
2022/06/18 07:23:37;;;;;;;21.48;7.07;;;21.20;99.90;;;;;;5038378;28;20033;-67
2022/06/18 07:26:03;;;;;;;16.27;6.40;;;21.20;99.90;;;;;;5050028;28;20109;-68
2022/06/18 07:28:29;;;;;;;18.27;6.90;;;21.30;99.90;;;;;;5049412;28;20135;-67
2022/06/18 07:30:55;;;;;;;20.30;7.13;;;21.40;99.90;;;;;;5036974;28;20132;-67
2022/06/18 07:33:24;;;;;;;22.60;6.53;;;21.50;99.90;;;;;;5043118;28;20143;-65
2022/06/18 07:35:50;;;;;;;13.77;5.90;;;21.60;99.90;;;;;;5062177;28;20095;-66
2022/06/18 07:38:16;;;;;;;16.63;6.63;;;21.60;99.90;;;;;;5050329;28;20325;-67
2022/06/18 07:40:51;;;;;;;11.23;5.15;;;21.60;99.90;;;;;;5050136;28;20045;-67
2022/06/18 07:43:41;;;;;;;10.63;5.40;;;21.60;99.90;;;;;;5048534;28;20041;-66
2022/06/18 07:46:10;;;;;;;15.48;5.63;;;21.60;99.90;;;;;;5043822;28;20045;-67
2022/06/18 07:48:39;;;;;;;15.38;5.43;;;21.60;99.90;;;;;;5050676;28;20084;-67
2022/06/18 07:51:06;;;;;;;14.20;5.35;;;21.70;99.90;;;;;;5049436;28;20048;-67
2022/06/18 07:53:32;;;;;;;11.23;4.47;;;21.80;99.90;;;;;;5036097;28;20038;-67
2022/06/18 07:55:58;;;;;;;10.45;3.83;;;21.80;99.90;;;;;;5034292;28;20042;-68
2022/06/18 07:58:26;;;;;;;11.85;4.05;;;22.00;99.90;;;;;;5043599;28;20044;-65
2022/06/18 08:00:53;;;;;;;12.27;3.58;;;22.00;99.90;;;;;;5053170;28;20044;-66
2022/06/18 08:03:19;;;;;;;12.68;3.95;;;22.20;99.90;;;;;;5034048;28;20523;-67
2022/06/18 08:05:46;;;;;;;5.93;2.75;;;22.20;99.90;;;;;;5034277;28;20057;-66
2022/06/18 08:08:13;;;;;;;7.40;2.95;;;22.20;99.90;;;;;;5067369;28;20040;-66
2022/06/18 08:10:40;;;;;;;10.57;3.25;;;22.20;99.90;;;;;;5054071;28;20045;-68
2022/06/18 08:13:06;;;;;;;4.90;2.33;;;22.30;99.90;;;;;;5054071;28;20053;-66
2022/06/18 08:15:32;;;;;;;3.90;1.98;;;22.40;99.90;;;;;;5049453;28;20359;-68
2022/06/18 08:17:58;;;;;;;5.60;2.45;;;22.50;99.90;;;;;;5069202;28;20045;-67
2022/06/18 08:20:26;;;;;;;6.55;2.10;;;22.60;99.90;;;;;;5047614;28;20085;-66
2022/06/18 08:22:55;;;;;;;4.40;2.33;;;22.70;99.90;;;;;;5049393;28;20499;-66
2022/06/18 08:25:23;;;;;;;4.50;1.90;;;22.70;99.90;;;;;;5034202;28;20462;-66
2022/06/18 08:27:51;;;;;;;4.88;1.80;;;22.70;99.90;;;;;;5033604;28;20099;-66
2022/06/18 08:30:17;;;;;;;;;;;22.60;99.90;;;;;;5034503;28;20080;-66
2022/06/18 08:32:44;;;;;;;4.50;1.58;;;22.50;99.90;;;;;;5033893;28;19921;-67
2022/06/18 08:35:10;;;;;;;4.65;1.90;;;22.50;99.90;;;;;;5052332;28;20044;-66
2022/06/18 08:37:36;;;;;;;7.80;2.05;;;22.50;99.90;;;;;;5069410;28;20049;-66
2022/06/18 08:40:34;;;;;;;3.92;1.60;;;22.40;99.90;;;;;;5050945;28;20052;-67
2022/06/18 08:43:33;;;;;;;2.83;1.50;;;22.50;99.90;;;;;;5053387;28;20452;-67
2022/06/18 08:46:29;;;;;;;10.85;1.70;;;22.40;99.90;;;;;;5045404;28;20068;-68
2022/06/18 08:49:22;;;;;;;3.17;1.48;;;22.40;99.90;;;;;;5053607;28;20087;-67
2022/06/18 08:52:31;;;;;;;3.60;1.60;;;22.50;99.90;;;;;;5052086;28;20448;-66
2022/06/18 08:55:03;;;;;;;5.32;1.50;;;22.80;99.90;;;;;;5051007;28;20037;-67
2022/06/18 08:57:39;;;;;;;3.60;1.58;;;22.80;99.90;;;;;;5051766;28;20053;-67
2022/06/18 09:00:08;;;;;;;2.80;1.60;;;22.60;99.90;;;;;;5051150;28;20046;-66
2022/06/18 09:02:54;;;;;;;4.43;1.63;;;22.60;99.90;;;;;;5050705;28;20060;-67
2022/06/18 09:05:30;;;;;;;5.45;1.85;;;22.70;99.90;;;;;;5051791;28;20045;-66
2022/06/18 09:08:17;;;;;;;3.88;1.70;;;22.60;99.90;;;;;;5046714;28;20107;-67
2022/06/18 09:11:08;;;;;;;4.35;1.85;;;22.60;99.90;;;;;;5031991;28;20511;-67
2022/06/18 09:13:54;;;;;;;7.35;2.13;;;22.50;99.90;;;;;;5042597;28;20048;-67
2022/06/18 09:16:24;;;;;;;8.13;1.83;;;22.50;99.90;;;;;;5053026;28;20052;-66
2022/06/18 09:18:53;;;;;;;6.72;2.10;;;22.60;99.90;;;;;;5046262;28;20052;-66
2022/06/18 09:21:28;;;;;;;5.88;2.08;;;22.60;99.90;;;;;;5045942;28;20041;-66
2022/06/18 09:24:05;;;;;;;5.68;1.90;;;22.70;99.90;;;;;;5042404;28;20443;-66
2022/06/18 09:26:39;;;;;;;5.00;1.92;;;22.70;99.90;;;;;;5028558;28;20099;-67
2022/06/18 09:29:12;;;;;;;7.40;2.33;;;22.60;99.90;;;;;;5044534;28;20515;-66
2022/06/18 09:31:57;;;;;;;5.53;1.85;;;22.60;99.90;;;;;;5038214;28;20052;-67
2022/06/18 09:34:33;;;;;;;4.35;1.58;;;22.70;99.90;;;;;;5051153;28;20056;-67
2022/06/18 09:37:05;;;;;;;5.93;1.63;;;22.80;99.90;;;;;;5047358;28;20055;-66
2022/06/18 09:39:40;;;;;;;4.22;1.80;;;23.00;99.90;;;;;;5039992;28;20057;-65
2022/06/18 09:42:13;;;;;;;4.93;2.03;;;23.20;99.90;;;;;;5028482;28;20132;-66
2022/06/18 09:44:50;;;;;;;4.30;1.55;;;23.20;99.90;;;;;;5034816;28;20449;-67
2022/06/18 09:47:26;;;;;;;4.90;1.58;;;23.10;99.90;;;;;;5041817;28;20049;-66
2022/06/18 09:49:52;;;;;;;5.07;1.60;;;23.10;99.90;;;;;;5040897;28;20045;-67
2022/06/18 09:52:39;;;;;;;5.70;1.73;;;23.30;99.90;;;;;;5040661;28;20047;-67
2022/06/18 09:55:19;;;;;;;3.97;1.40;;;23.30;99.90;;;;;;5036229;28;20458;-66
2022/06/18 09:57:52;;;;;;;4.65;1.60;;;23.20;99.90;;;;;;5027354;28;20111;-66
2022/06/18 10:00:30;;;;;;;5.72;1.95;;;23.10;99.90;;;;;;5035371;28;20045;-67
2022/06/18 10:03:01;;;;;;;5.45;1.85;;;23.00;99.90;;;;;;5027038;28;20061;-66
2022/06/18 10:08:36;;;;;;;4.25;1.35;;;23.00;99.90;;;;;;5032737;28;20089;-66
2022/06/18 10:11:08;;;;;;;4.00;1.50;;;22.90;99.90;;;;;;5038793;28;20055;-66
2022/06/18 10:13:45;;;;;;;5.32;1.60;;;22.90;99.90;;;;;;5039154;28;20056;-66
2022/06/18 10:16:23;;;;;;;3.53;1.30;;;22.90;99.90;;;;;;5040555;28;20116;-68
2022/06/18 10:19:24;;;;;;;3.22;1.60;;;23.00;99.90;;;;;;5032747;28;20049;-67
2022/06/18 10:21:59;;;;;;;5.90;1.88;;;23.30;99.90;;;;;;5040318;28;20088;-67
2022/06/18 10:24:53;;;;;;;4.55;1.33;;;23.50;99.90;;;;;;5028558;28;20050;-66
2022/06/18 10:27:28;;;;;;;2.42;1.15;;;23.40;99.90;;;;;;5009683;28;20132;-66
2022/06/18 10:30:02;;;;;;;4.45;1.15;;;23.40;99.90;;;;;;5046266;28;20052;-68
2022/06/18 10:32:34;;;;;;;6.25;1.25;;;23.60;99.90;;;;;;5036829;28;20037;-68
2022/06/18 10:35:25;;;;;;;4.70;1.40;;;23.80;99.90;;;;;;5039890;28;20068;-67
2022/06/18 10:38:15;;;;;;;3.17;1.20;;;24.10;99.90;;;;;;5056661;28;20383;-67
2022/06/18 10:41:05;;;;;;;2.80;1.55;;;24.30;99.80;;;;;;5034405;28;20054;-66
2022/06/18 10:44:01;;;;;;;3.55;1.45;;;24.50;99.60;;;;;;5028157;28;20095;-67
2022/06/18 10:46:27;;;;;;;7.03;1.75;;;24.60;98.50;;;;;;5028452;28;20045;-68
2022/06/18 10:49:03;;;;;;;2.70;1.30;;;24.40;99.00;;;;;;5042925;28;20060;-67
2022/06/18 10:51:41;;;;;;;4.45;1.52;;;24.40;99.70;;;;;;5043023;28;20053;-68
2022/06/18 10:54:07;;;;;;;3.97;1.35;;;24.50;99.60;;;;;;5040027;28;20455;-67
2022/06/18 10:56:52;;;;;;;3.45;1.50;;;24.70;98.60;;;;;;5035202;28;20075;-66
2022/06/18 10:59:33;;;;;;;4.13;1.20;;;24.80;98.10;;;;;;5044966;28;20049;-68
2022/06/18 11:02:43;;;;;;;2.83;1.13;;;24.60;98.50;;;;;;5049551;28;20109;-66
2022/06/18 11:05:41;;;;;;;2.45;1.10;;;24.40;98.70;;;;;;5035968;28;20128;-68
2022/06/18 11:08:32;;;;;;;3.55;1.20;;;24.40;98.20;;;;;;5030009;28;20052;-67
2022/06/18 11:11:07;;;;;;;2.58;1.20;;;24.30;98.70;;;;;;5047250;28;20041;-66
2022/06/18 11:13:39;;;;;;;0.93;0.88;;;24.40;98.60;;;;;;5025157;28;20049;-68
2022/06/18 11:16:40;;;;;;;2.50;1.10;;;24.70;98.00;;;;;;5045786;28;20115;-67
2022/06/18 11:19:16;;;;;;;3.40;1.00;;;25.00;97.30;;;;;;5056495;28;20111;-69
2022/06/18 11:21:43;;;;;;;2.20;1.10;;;25.10;97.70;;;;;;5041424;28;20502;-67
2022/06/18 11:24:12;;;;;;;5.28;1.30;;;25.30;97.00;;;;;;5040357;28;20484;-66
2022/06/18 11:26:41;;;;;;;3.45;1.50;;;25.40;96.60;;;;;;5048156;28;20046;-67
2022/06/18 11:29:31;;;;;;;4.88;1.55;;;25.50;96.70;;;;;;5033057;28;20593;-67
2022/06/18 11:31:59;;;;;;;7.65;1.55;;;25.30;96.70;;;;;;5046236;28;20060;-67
2022/06/18 11:34:29;;;;;;;7.32;2.00;;;25.10;97.00;;;;;;5038008;28;20872;-67
2022/06/18 11:36:59;;;;;;;6.60;1.83;;;24.90;97.00;;;;;;5032488;28;20465;-67
2022/06/18 11:39:35;;;;;;;4.57;1.73;;;24.90;97.00;;;;;;5035018;28;20049;-66
2022/06/18 11:42:08;;;;;;;7.72;1.90;;;24.70;97.40;;;;;;5018559;28;20056;-67
2022/06/18 11:44:49;;;;;;;8.52;1.90;;;24.60;97.50;;;;;;5050088;28;20495;-67
2022/06/18 11:47:35;;;;;;;5.43;1.90;;;24.70;97.90;;;;;;5043521;28;20161;-67
2022/06/18 11:50:32;;;;;;;4.97;1.70;;;24.80;96.90;;;;;;5036319;28;20048;-67
2022/06/18 11:53:30;;;;;;;4.32;1.70;;;24.90;96.50;;;;;;5031548;28;20143;-68
2022/06/18 11:55:57;;;;;;;6.30;1.90;;;24.90;96.70;;;;;;5045961;28;20578;-68
2022/06/18 11:58:33;;;;;;;;;;;24.90;95.90;;;;;;5044231;28;20045;-68
2022/06/18 12:01:09;;;;;;;6.50;1.80;;;24.70;95.40;;;;;;5052241;28;19928;-66
2022/06/18 12:03:35;;;;;;;6.38;1.63;;;24.70;95.20;;;;;;5049141;28;20061;-67
2022/06/18 12:06:02;;;;;;;8.17;1.67;;;24.60;94.90;;;;;;5038434;28;20053;-67
2022/06/18 12:08:28;;;;;;;8.57;1.92;;;24.60;95.60;;;;;;5059390;28;20295;-67
2022/06/18 12:11:17;;;;;;;5.10;1.98;;;24.60;94.60;;;;;;5044739;28;20053;-67
2022/06/18 12:13:44;;;;;;;;;;;24.40;95.20;;;;;;5043034;28;20067;-67
2022/06/18 12:16:21;;;;;;;8.50;2.00;;;24.20;95.00;;;;;;5037705;28;19921;-66
2022/06/18 12:19:13;;;;;;;4.03;1.60;;;24.00;95.10;;;;;;5059219;28;20123;-67
2022/06/18 12:22:02;;;;;;;6.53;1.88;;;24.00;95.50;;;;;;5038810;28;20474;-69
2022/06/18 12:24:27;;;;;;;;;;;24.00;95.80;;;;;;5041255;28;20052;-67
2022/06/18 12:27:06;;;;;;;9.77;2.33;;;24.00;95.40;;;;;;5053844;28;19921;-68
2022/06/18 12:30:17;;;;;;;8.50;2.17;;;23.90;95.50;;;;;;5051376;28;20037;-68
2022/06/18 12:33:12;;;;;;;5.45;1.70;;;23.80;95.70;;;;;;5051217;28;20503;-67
2022/06/18 12:36:02;;;;;;;10.02;2.10;;;23.80;95.90;;;;;;5033828;28;21305;-67
2022/06/18 12:38:50;;;;;;;6.97;1.85;;;24.00;96.00;;;;;;5037372;28;20094;-67
2022/06/18 12:41:21;;;;;;;;;;;24.20;95.50;;;;;;5035382;28;20052;-68
2022/06/18 12:43:54;;;;;;;11.50;1.92;;;24.10;94.70;;;;;;5052553;28;19920;-67
2022/06/18 12:46:28;;;;;;;7.97;2.35;;;24.00;95.40;;;;;;5049568;28;20615;-68
2022/06/18 12:49:03;;;;;;;8.68;2.20;;;23.90;95.00;;;;;;5041682;28;20049;-68
2022/06/18 12:51:49;;;;;;;10.10;2.90;;;23.80;95.00;;;;;;5068545;28;20080;-67
2022/06/18 12:54:31;;;;;;;9.68;2.30;;;23.80;94.50;;;;;;5053689;28;20053;-67
2022/06/18 12:57:35;;;;;;;5.95;1.90;;;23.70;94.80;;;;;;5048682;28;20403;-68
2022/06/18 13:00:09;;;;;;;11.40;2.17;;;23.80;94.90;;;;;;5035501;28;20387;-68
2022/06/18 13:02:53;;;;;;;13.15;2.55;;;23.80;94.70;;;;;;5046738;28;20048;-67
2022/06/18 13:05:41;;;;;;;7.05;1.95;;;23.90;94.10;;;;;;5052282;28;20053;-67
2022/06/18 13:08:20;;;;;;;8.90;2.10;;;23.60;93.80;;;;;;5051817;28;20045;-68
2022/06/18 13:11:08;;;;;;;12.23;2.63;;;23.40;93.90;;;;;;5047787;28;20037;-67
2022/06/18 13:14:00;;;;;;;9.73;2.38;;;23.50;94.30;;;;;;5042710;28;20106;-67
2022/06/18 13:16:49;;;;;;;9.63;2.00;;;23.50;94.00;;;;;;5034402;28;20057;-68
2022/06/18 13:19:20;;;;;;;;;;;23.40;93.90;;;;;;5046442;28;20102;-67
2022/06/18 13:21:47;;;;;;;11.80;2.25;;;23.40;92.90;;;;;;5028167;28;19925;-68